sensor_id;sensor_type;location;lat;lon;timestamp;P1;durP1;ratioP1;P2;durP2;ratioP2
47812;SDS011;34221;45.296;9.516;2022-10-16T00:00:05;125.93;;;77.75;;
47812;SDS011;34221;45.296;9.516;2022-10-16T00:00:21;127.93;;;77.75;;
47812;SDS011;34221;45.296;9.516;2022-10-16T00:00:37;124.32;;;76.38;;
47812;SDS011;34221;45.296;9.516;2022-10-16T00:00:53;123.10;;;75.18;;
47812;SDS011;34221;45.296;9.516;2022-10-16T00:01:09;128.43;;;75.73;;
47812;SDS011;34221;45.296;9.516;2022-10-16T00:01:28;126.68;;;77.60;;
47812;SDS011;34221;45.296;9.516;2022-10-16T00:01:44;124.70;;;78.43;;
47812;SDS011;34221;45.296;9.516;2022-10-16T00:01:59;127.97;;;79.00;;
47812;SDS011;34221;45.296;9.516;2022-10-16T00:02:14;128.38;;;79.00;;
47812;SDS011;34221;45.296;9.516;2022-10-16T00:02:29;127.63;;;78.38;;
47812;SDS011;34221;45.296;9.516;2022-10-16T00:02:44;122.68;;;76.28;;
47812;SDS011;34221;45.296;9.516;2022-10-16T00:02:59;117.35;;;76.22;;
47812;SDS011;34221;45.296;9.516;2022-10-16T00:03:14;123.57;;;78.28;;
47812;SDS011;34221;45.296;9.516;2022-10-16T00:03:29;128.02;;;78.50;;
47812;SDS011;34221;45.296;9.516;2022-10-16T00:03:44;122.43;;;76.25;;
47812;SDS011;34221;45.296;9.516;2022-10-16T00:04:01;123.50;;;76.45;;
47812;SDS011;34221;45.296;9.516;2022-10-16T00:04:17;126.78;;;76.05;;
47812;SDS011;34221;45.296;9.516;2022-10-16T00:04:32;123.60;;;74.73;;
47812;SDS011;34221;45.296;9.516;2022-10-16T00:04:47;123.10;;;75.47;;
47812;SDS011;34221;45.296;9.516;2022-10-16T00:05:02;124.88;;;76.50;;
47812;SDS011;34221;45.296;9.516;2022-10-16T00:05:17;124.20;;;76.78;;
47812;SDS011;34221;45.296;9.516;2022-10-16T00:05:32;123.83;;;76.87;;
47812;SDS011;34221;45.296;9.516;2022-10-16T00:05:52;118.97;;;77.25;;
47812;SDS011;34221;45.296;9.516;2022-10-16T00:06:09;120.15;;;76.82;;
47812;SDS011;34221;45.296;9.516;2022-10-16T00:06:25;135.23;;;78.80;;
47812;SDS011;34221;45.296;9.516;2022-10-16T00:06:41;136.27;;;79.03;;
47812;SDS011;34221;45.296;9.516;2022-10-16T00:06:56;121.68;;;75.18;;
47812;SDS011;34221;45.296;9.516;2022-10-16T00:07:11;121.85;;;76.22;;
47812;SDS011;34221;45.296;9.516;2022-10-16T00:07:26;120.57;;;77.10;;
47812;SDS011;34221;45.296;9.516;2022-10-16T00:07:41;119.93;;;76.47;;
47812;SDS011;34221;45.296;9.516;2022-10-16T00:07:56;122.25;;;77.20;;
47812;SDS011;34221;45.296;9.516;2022-10-16T00:08:11;121.75;;;76.82;;
47812;SDS011;34221;45.296;9.516;2022-10-16T00:08:27;120.63;;;75.97;;
47812;SDS011;34221;45.296;9.516;2022-10-16T00:08:43;120.45;;;76.00;;
47812;SDS011;34221;45.296;9.516;2022-10-16T00:08:59;121.50;;;75.32;;
47812;SDS011;34221;45.296;9.516;2022-10-16T00:09:14;125.72;;;75.47;;
47812;SDS011;34221;45.296;9.516;2022-10-16T00:09:29;122.57;;;75.18;;
47812;SDS011;34221;45.296;9.516;2022-10-16T00:09:45;122.18;;;75.90;;
47812;SDS011;34221;45.296;9.516;2022-10-16T00:10:00;122.40;;;76.70;;
47812;SDS011;34221;45.296;9.516;2022-10-16T00:10:15;127.85;;;77.15;;
47812;SDS011;34221;45.296;9.516;2022-10-16T00:10:30;127.22;;;77.18;;
47812;SDS011;34221;45.296;9.516;2022-10-16T00:10:45;121.55;;;77.32;;
47812;SDS011;34221;45.296;9.516;2022-10-16T00:11:01;127.50;;;77.03;;
47812;SDS011;34221;45.296;9.516;2022-10-16T00:11:19;128.13;;;77.00;;
47812;SDS011;34221;45.296;9.516;2022-10-16T00:11:38;115.28;;;74.05;;
47812;SDS011;34221;45.296;9.516;2022-10-16T00:11:54;122.75;;;76.30;;
47812;SDS011;34221;45.296;9.516;2022-10-16T00:12:09;127.85;;;78.38;;
47812;SDS011;34221;45.296;9.516;2022-10-16T00:12:24;125.80;;;76.32;;
47812;SDS011;34221;45.296;9.516;2022-10-16T00:12:39;127.88;;;76.57;;
47812;SDS011;34221;45.296;9.516;2022-10-16T00:12:54;130.57;;;78.43;;
47812;SDS011;34221;45.296;9.516;2022-10-16T00:13:09;130.68;;;78.20;;
47812;SDS011;34221;45.296;9.516;2022-10-16T00:13:24;127.68;;;77.28;;
47812;SDS011;34221;45.296;9.516;2022-10-16T00:13:39;121.33;;;74.77;;
47812;SDS011;34221;45.296;9.516;2022-10-16T00:13:57;117.22;;;74.47;;
47812;SDS011;34221;45.296;9.516;2022-10-16T00:14:15;130.88;;;77.95;;
47812;SDS011;34221;45.296;9.516;2022-10-16T00:14:30;129.63;;;76.28;;
47812;SDS011;34221;45.296;9.516;2022-10-16T00:14:45;121.75;;;74.53;;
47812;SDS011;34221;45.296;9.516;2022-10-16T00:15:00;119.70;;;74.68;;
47812;SDS011;34221;45.296;9.516;2022-10-16T00:15:15;122.00;;;75.88;;
47812;SDS011;34221;45.296;9.516;2022-10-16T00:15:32;124.38;;;75.40;;
47812;SDS011;34221;45.296;9.516;2022-10-16T00:15:54;126.10;;;75.28;;
47812;SDS011;34221;45.296;9.516;2022-10-16T00:16:13;128.35;;;76.72;;
47812;SDS011;34221;45.296;9.516;2022-10-16T00:16:29;124.50;;;76.30;;
47812;SDS011;34221;45.296;9.516;2022-10-16T00:16:44;120.97;;;75.10;;
47812;SDS011;34221;45.296;9.516;2022-10-16T00:16:59;123.70;;;76.40;;
47812;SDS011;34221;45.296;9.516;2022-10-16T00:17:14;121.07;;;78.78;;
47812;SDS011;34221;45.296;9.516;2022-10-16T00:17:29;122.10;;;78.35;;
47812;SDS011;34221;45.296;9.516;2022-10-16T00:17:44;124.78;;;75.80;;
47812;SDS011;34221;45.296;9.516;2022-10-16T00:17:59;120.53;;;74.57;;
47812;SDS011;34221;45.296;9.516;2022-10-16T00:18:14;122.35;;;75.68;;
47812;SDS011;34221;45.296;9.516;2022-10-16T00:18:30;129.82;;;76.63;;
47812;SDS011;34221;45.296;9.516;2022-10-16T00:18:45;128.40;;;77.40;;
47812;SDS011;34221;45.296;9.516;2022-10-16T00:19:00;123.88;;;77.80;;
47812;SDS011;34221;45.296;9.516;2022-10-16T00:19:16;127.15;;;76.57;;
47812;SDS011;34221;45.296;9.516;2022-10-16T00:19:31;122.05;;;75.35;;
47812;SDS011;34221;45.296;9.516;2022-10-16T00:19:46;126.20;;;77.53;;
47812;SDS011;34221;45.296;9.516;2022-10-16T00:20:19;126.95;;;75.78;;
47812;SDS011;34221;45.296;9.516;2022-10-16T00:20:53;123.55;;;76.07;;
47812;SDS011;34221;45.296;9.516;2022-10-16T00:21:27;125.50;;;77.15;;
47812;SDS011;34221;45.296;9.516;2022-10-16T00:22:02;121.72;;;78.35;;
47812;SDS011;34221;45.296;9.516;2022-10-16T00:22:36;128.40;;;77.50;;
47812;SDS011;34221;45.296;9.516;2022-10-16T00:22:51;118.57;;;74.93;;
47812;SDS011;34221;45.296;9.516;2022-10-16T00:23:06;124.93;;;77.57;;
47812;SDS011;34221;45.296;9.516;2022-10-16T00:23:21;127.32;;;78.00;;
47812;SDS011;34221;45.296;9.516;2022-10-16T00:23:36;124.45;;;75.70;;
47812;SDS011;34221;45.296;9.516;2022-10-16T00:23:53;126.18;;;75.38;;
47812;SDS011;34221;45.296;9.516;2022-10-16T00:24:13;128.05;;;79.05;;
47812;SDS011;34221;45.296;9.516;2022-10-16T00:24:28;132.68;;;80.40;;
47812;SDS011;34221;45.296;9.516;2022-10-16T00:24:43;123.18;;;76.95;;
47812;SDS011;34221;45.296;9.516;2022-10-16T00:24:58;120.75;;;74.90;;
47812;SDS011;34221;45.296;9.516;2022-10-16T00:25:13;123.15;;;75.53;;
47812;SDS011;34221;45.296;9.516;2022-10-16T00:25:28;122.75;;;75.82;;
47812;SDS011;34221;45.296;9.516;2022-10-16T00:25:43;125.18;;;76.50;;
47812;SDS011;34221;45.296;9.516;2022-10-16T00:25:59;127.64;;;78.36;;
47812;SDS011;34221;45.296;9.516;2022-10-16T00:26:16;136.07;;;78.88;;
47812;SDS011;34221;45.296;9.516;2022-10-16T00:26:33;130.88;;;78.53;;
47812;SDS011;34221;45.296;9.516;2022-10-16T00:26:49;124.18;;;76.60;;
47812;SDS011;34221;45.296;9.516;2022-10-16T00:27:05;123.13;;;75.88;;
47812;SDS011;34221;45.296;9.516;2022-10-16T00:27:19;129.98;;;77.10;;
47812;SDS011;34221;45.296;9.516;2022-10-16T00:27:34;128.50;;;77.75;;
47812;SDS011;34221;45.296;9.516;2022-10-16T00:27:49;123.60;;;78.70;;
47812;SDS011;34221;45.296;9.516;2022-10-16T00:28:04;131.43;;;78.47;;
47812;SDS011;34221;45.296;9.516;2022-10-16T00:28:19;129.10;;;77.28;;
47812;SDS011;34221;45.296;9.516;2022-10-16T00:28:35;124.75;;;77.80;;
47812;SDS011;34221;45.296;9.516;2022-10-16T00:28:50;129.30;;;79.18;;
47812;SDS011;34221;45.296;9.516;2022-10-16T00:29:06;127.10;;;78.70;;
47812;SDS011;34221;45.296;9.516;2022-10-16T00:29:21;125.80;;;78.13;;
47812;SDS011;34221;45.296;9.516;2022-10-16T00:29:36;125.75;;;79.18;;
47812;SDS011;34221;45.296;9.516;2022-10-16T00:29:52;123.32;;;77.40;;
47812;SDS011;34221;45.296;9.516;2022-10-16T00:30:07;117.40;;;74.50;;
47812;SDS011;34221;45.296;9.516;2022-10-16T00:30:23;117.18;;;74.63;;
47812;SDS011;34221;45.296;9.516;2022-10-16T00:30:38;120.35;;;76.20;;
47812;SDS011;34221;45.296;9.516;2022-10-16T00:30:54;124.47;;;77.30;;
47812;SDS011;34221;45.296;9.516;2022-10-16T00:31:10;121.05;;;76.15;;
47812;SDS011;34221;45.296;9.516;2022-10-16T00:31:26;118.40;;;76.43;;
47812;SDS011;34221;45.296;9.516;2022-10-16T00:31:41;124.30;;;76.97;;
47812;SDS011;34221;45.296;9.516;2022-10-16T00:31:56;120.15;;;76.10;;
47812;SDS011;34221;45.296;9.516;2022-10-16T00:32:11;118.68;;;75.80;;
47812;SDS011;34221;45.296;9.516;2022-10-16T00:32:26;124.35;;;77.68;;
47812;SDS011;34221;45.296;9.516;2022-10-16T00:32:41;122.95;;;77.75;;
47812;SDS011;34221;45.296;9.516;2022-10-16T00:32:56;127.40;;;77.75;;
47812;SDS011;34221;45.296;9.516;2022-10-16T00:33:11;128.23;;;76.20;;
47812;SDS011;34221;45.296;9.516;2022-10-16T00:33:26;125.13;;;74.65;;
47812;SDS011;34221;45.296;9.516;2022-10-16T00:33:41;129.93;;;76.07;;
47812;SDS011;34221;45.296;9.516;2022-10-16T00:33:56;125.60;;;75.47;;
47812;SDS011;34221;45.296;9.516;2022-10-16T00:34:11;121.40;;;77.00;;
47812;SDS011;34221;45.296;9.516;2022-10-16T00:34:26;128.68;;;78.72;;
47812;SDS011;34221;45.296;9.516;2022-10-16T00:34:41;129.02;;;77.45;;
47812;SDS011;34221;45.296;9.516;2022-10-16T00:34:56;126.43;;;77.53;;
47812;SDS011;34221;45.296;9.516;2022-10-16T00:35:11;129.13;;;78.80;;
47812;SDS011;34221;45.296;9.516;2022-10-16T00:35:26;126.05;;;78.00;;
47812;SDS011;34221;45.296;9.516;2022-10-16T00:35:42;120.18;;;77.40;;
47812;SDS011;34221;45.296;9.516;2022-10-16T00:35:58;125.55;;;78.80;;
47812;SDS011;34221;45.296;9.516;2022-10-16T00:36:16;133.45;;;79.45;;
47812;SDS011;34221;45.296;9.516;2022-10-16T00:36:34;132.15;;;78.72;;
47812;SDS011;34221;45.296;9.516;2022-10-16T00:36:49;128.30;;;77.88;;
47812;SDS011;34221;45.296;9.516;2022-10-16T00:37:04;124.93;;;77.47;;
47812;SDS011;34221;45.296;9.516;2022-10-16T00:37:20;127.22;;;78.05;;
47812;SDS011;34221;45.296;9.516;2022-10-16T00:37:35;130.77;;;78.70;;
47812;SDS011;34221;45.296;9.516;2022-10-16T00:37:50;127.50;;;78.53;;
47812;SDS011;34221;45.296;9.516;2022-10-16T00:38:05;120.18;;;77.00;;
47812;SDS011;34221;45.296;9.516;2022-10-16T00:38:20;125.70;;;78.05;;
47812;SDS011;34221;45.296;9.516;2022-10-16T00:38:35;133.95;;;79.18;;
47812;SDS011;34221;45.296;9.516;2022-10-16T00:38:52;128.00;;;78.38;;
47812;SDS011;34221;45.296;9.516;2022-10-16T00:39:10;123.32;;;78.25;;
47812;SDS011;34221;45.296;9.516;2022-10-16T00:39:25;120.80;;;76.00;;
47812;SDS011;34221;45.296;9.516;2022-10-16T00:39:40;125.97;;;76.60;;
47812;SDS011;34221;45.296;9.516;2022-10-16T00:39:55;128.60;;;77.15;;
47812;SDS011;34221;45.296;9.516;2022-10-16T00:40:10;125.07;;;76.00;;
47812;SDS011;34221;45.296;9.516;2022-10-16T00:40:25;126.63;;;77.30;;
47812;SDS011;34221;45.296;9.516;2022-10-16T00:40:40;128.60;;;77.93;;
47812;SDS011;34221;45.296;9.516;2022-10-16T00:40:55;129.27;;;78.40;;
47812;SDS011;34221;45.296;9.516;2022-10-16T00:41:12;129.35;;;79.20;;
47812;SDS011;34221;45.296;9.516;2022-10-16T00:41:30;125.78;;;77.95;;
47812;SDS011;34221;45.296;9.516;2022-10-16T00:41:46;122.72;;;75.75;;
47812;SDS011;34221;45.296;9.516;2022-10-16T00:42:01;124.38;;;76.43;;
47812;SDS011;34221;45.296;9.516;2022-10-16T00:42:17;128.27;;;78.03;;
47812;SDS011;34221;45.296;9.516;2022-10-16T00:42:33;125.78;;;77.93;;
47812;SDS011;34221;45.296;9.516;2022-10-16T00:42:48;125.85;;;77.40;;
47812;SDS011;34221;45.296;9.516;2022-10-16T00:43:04;128.30;;;76.88;;
47812;SDS011;34221;45.296;9.516;2022-10-16T00:43:59;125.82;;;75.60;;
47812;SDS011;34221;45.296;9.516;2022-10-16T00:45:00;131.02;;;78.57;;
47812;SDS011;34221;45.296;9.516;2022-10-16T00:45:16;122.53;;;78.20;;
47812;SDS011;34221;45.296;9.516;2022-10-16T00:45:31;121.55;;;75.85;;
47812;SDS011;34221;45.296;9.516;2022-10-16T00:45:46;129.52;;;77.07;;
47812;SDS011;34221;45.296;9.516;2022-10-16T00:46:02;132.35;;;78.70;;
47812;SDS011;34221;45.296;9.516;2022-10-16T00:46:27;125.32;;;77.45;;
47812;SDS011;34221;45.296;9.516;2022-10-16T00:46:52;122.03;;;77.07;;
47812;SDS011;34221;45.296;9.516;2022-10-16T00:47:21;124.65;;;79.28;;
47812;SDS011;34221;45.296;9.516;2022-10-16T00:47:43;137.35;;;79.78;;
47812;SDS011;34221;45.296;9.516;2022-10-16T00:48:01;134.00;;;78.93;;
47812;SDS011;34221;45.296;9.516;2022-10-16T00:48:16;127.75;;;78.40;;
47812;SDS011;34221;45.296;9.516;2022-10-16T00:48:31;127.47;;;79.00;;
47812;SDS011;34221;45.296;9.516;2022-10-16T00:49:31;133.63;;;79.47;;
47812;SDS011;34221;45.296;9.516;2022-10-16T00:49:47;131.90;;;77.68;;
47812;SDS011;34221;45.296;9.516;2022-10-16T00:50:13;131.02;;;79.65;;
47812;SDS011;34221;45.296;9.516;2022-10-16T00:50:36;133.25;;;78.88;;
47812;SDS011;34221;45.296;9.516;2022-10-16T00:50:52;129.23;;;77.78;;
47812;SDS011;34221;45.296;9.516;2022-10-16T00:51:08;126.10;;;76.50;;
47812;SDS011;34221;45.296;9.516;2022-10-16T00:51:25;128.60;;;76.93;;
47812;SDS011;34221;45.296;9.516;2022-10-16T00:51:51;126.38;;;77.72;;
47812;SDS011;34221;45.296;9.516;2022-10-16T00:52:08;130.98;;;79.40;;
47812;SDS011;34221;45.296;9.516;2022-10-16T00:52:24;133.63;;;79.60;;
47812;SDS011;34221;45.296;9.516;2022-10-16T00:52:41;131.15;;;78.43;;
47812;SDS011;34221;45.296;9.516;2022-10-16T00:53:00;132.32;;;78.60;;
47812;SDS011;34221;45.296;9.516;2022-10-16T00:53:16;130.88;;;79.50;;
47812;SDS011;34221;45.296;9.516;2022-10-16T00:53:32;123.05;;;77.53;;
47812;SDS011;34221;45.296;9.516;2022-10-16T00:53:48;128.48;;;77.70;;
47812;SDS011;34221;45.296;9.516;2022-10-16T00:54:04;132.57;;;77.45;;
47812;SDS011;34221;45.296;9.516;2022-10-16T00:54:29;128.82;;;76.32;;
47812;SDS011;34221;45.296;9.516;2022-10-16T00:54:45;123.85;;;77.00;;
47812;SDS011;34221;45.296;9.516;2022-10-16T00:55:02;123.05;;;77.10;;
47812;SDS011;34221;45.296;9.516;2022-10-16T00:55:19;126.10;;;77.85;;
47812;SDS011;34221;45.296;9.516;2022-10-16T00:55:34;127.25;;;77.82;;
47812;SDS011;34221;45.296;9.516;2022-10-16T00:55:53;126.65;;;79.07;;
47812;SDS011;34221;45.296;9.516;2022-10-16T00:56:08;132.57;;;81.00;;
47812;SDS011;34221;45.296;9.516;2022-10-16T00:56:23;130.32;;;78.78;;
47812;SDS011;34221;45.296;9.516;2022-10-16T00:56:38;128.40;;;78.18;;
47812;SDS011;34221;45.296;9.516;2022-10-16T00:56:55;130.88;;;79.07;;
47812;SDS011;34221;45.296;9.516;2022-10-16T00:57:14;135.77;;;80.30;;
47812;SDS011;34221;45.296;9.516;2022-10-16T00:57:29;137.40;;;80.18;;
47812;SDS011;34221;45.296;9.516;2022-10-16T00:57:45;129.98;;;77.82;;
47812;SDS011;34221;45.296;9.516;2022-10-16T00:58:01;124.33;;;75.30;;
47812;SDS011;34221;45.296;9.516;2022-10-16T00:58:16;120.40;;;76.00;;
47812;SDS011;34221;45.296;9.516;2022-10-16T00:58:32;120.10;;;78.03;;
47812;SDS011;34221;45.296;9.516;2022-10-16T00:58:47;123.30;;;77.50;;
47812;SDS011;34221;45.296;9.516;2022-10-16T00:59:03;123.32;;;76.45;;
47812;SDS011;34221;45.296;9.516;2022-10-16T00:59:35;122.28;;;78.30;;
47812;SDS011;34221;45.296;9.516;2022-10-16T00:59:53;124.85;;;76.78;;
47812;SDS011;34221;45.296;9.516;2022-10-16T01:00:09;124.38;;;76.47;;
47812;SDS011;34221;45.296;9.516;2022-10-16T01:00:28;124.88;;;78.70;;
47812;SDS011;34221;45.296;9.516;2022-10-16T01:00:43;125.72;;;79.28;;
47812;SDS011;34221;45.296;9.516;2022-10-16T01:00:57;127.90;;;77.85;;
47812;SDS011;34221;45.296;9.516;2022-10-16T01:01:12;132.30;;;77.25;;
47812;SDS011;34221;45.296;9.516;2022-10-16T01:01:28;128.13;;;76.93;;
47812;SDS011;34221;45.296;9.516;2022-10-16T01:01:43;123.53;;;76.60;;
47812;SDS011;34221;45.296;9.516;2022-10-16T01:01:58;123.20;;;77.53;;
47812;SDS011;34221;45.296;9.516;2022-10-16T01:02:15;123.70;;;78.93;;
47812;SDS011;34221;45.296;9.516;2022-10-16T01:02:30;123.22;;;77.63;;
47812;SDS011;34221;45.296;9.516;2022-10-16T01:02:51;123.38;;;77.30;;
47812;SDS011;34221;45.296;9.516;2022-10-16T01:03:38;122.18;;;77.25;;
47812;SDS011;34221;45.296;9.516;2022-10-16T01:03:53;126.97;;;76.63;;
47812;SDS011;34221;45.296;9.516;2022-10-16T01:04:07;137.27;;;78.57;;
47812;SDS011;34221;45.296;9.516;2022-10-16T01:04:23;132.07;;;79.15;;
47812;SDS011;34221;45.296;9.516;2022-10-16T01:04:47;123.00;;;77.90;;
47812;SDS011;34221;45.296;9.516;2022-10-16T01:05:06;125.72;;;77.75;;
47812;SDS011;34221;45.296;9.516;2022-10-16T01:05:23;129.63;;;76.97;;
47812;SDS011;34221;45.296;9.516;2022-10-16T01:05:49;124.80;;;77.65;;
47812;SDS011;34221;45.296;9.516;2022-10-16T01:07:09;126.10;;;77.28;;
47812;SDS011;34221;45.296;9.516;2022-10-16T01:08:34;119.10;;;76.55;;
47812;SDS011;34221;45.296;9.516;2022-10-16T01:09:49;127.13;;;77.93;;
47812;SDS011;34221;45.296;9.516;2022-10-16T01:11:46;114.25;;;74.35;;
47812;SDS011;34221;45.296;9.516;2022-10-16T01:12:09;118.13;;;75.97;;
47812;SDS011;34221;45.296;9.516;2022-10-16T01:12:51;128.20;;;76.43;;
47812;SDS011;34221;45.296;9.516;2022-10-16T01:13:24;121.40;;;76.78;;
47812;SDS011;34221;45.296;9.516;2022-10-16T01:13:52;127.30;;;80.00;;
47812;SDS011;34221;45.296;9.516;2022-10-16T01:15:14;127.40;;;78.43;;
47812;SDS011;34221;45.296;9.516;2022-10-16T01:15:34;124.75;;;77.10;;
47812;SDS011;34221;45.296;9.516;2022-10-16T01:16:29;122.88;;;78.22;;
47812;SDS011;34221;45.296;9.516;2022-10-16T01:17:10;131.95;;;79.05;;
47812;SDS011;34221;45.296;9.516;2022-10-16T01:18:46;124.03;;;76.75;;
47812;SDS011;34221;45.296;9.516;2022-10-16T01:19:12;124.57;;;77.28;;
47812;SDS011;34221;45.296;9.516;2022-10-16T01:20:59;125.57;;;77.63;;
47812;SDS011;34221;45.296;9.516;2022-10-16T01:21:16;118.70;;;75.82;;
47812;SDS011;34221;45.296;9.516;2022-10-16T01:21:40;129.70;;;79.15;;
47812;SDS011;34221;45.296;9.516;2022-10-16T01:21:57;130.70;;;79.55;;
47812;SDS011;34221;45.296;9.516;2022-10-16T01:22:14;126.22;;;77.93;;
47812;SDS011;34221;45.296;9.516;2022-10-16T01:22:33;125.35;;;78.60;;
47812;SDS011;34221;45.296;9.516;2022-10-16T01:22:57;127.75;;;78.43;;
47812;SDS011;34221;45.296;9.516;2022-10-16T01:24:53;119.90;;;75.88;;
47812;SDS011;34221;45.296;9.516;2022-10-16T01:25:13;116.95;;;74.72;;
47812;SDS011;34221;45.296;9.516;2022-10-16T01:26:37;122.10;;;78.32;;
47812;SDS011;34221;45.296;9.516;2022-10-16T01:27:14;121.05;;;75.60;;
47812;SDS011;34221;45.296;9.516;2022-10-16T01:27:38;121.65;;;76.82;;
47812;SDS011;34221;45.296;9.516;2022-10-16T01:27:54;118.82;;;75.50;;
47812;SDS011;34221;45.296;9.516;2022-10-16T01:28:11;121.68;;;74.45;;
47812;SDS011;34221;45.296;9.516;2022-10-16T01:28:33;126.38;;;76.10;;
47812;SDS011;34221;45.296;9.516;2022-10-16T01:29:09;126.25;;;77.72;;
47812;SDS011;34221;45.296;9.516;2022-10-16T01:30:13;123.50;;;78.47;;
47812;SDS011;34221;45.296;9.516;2022-10-16T01:30:35;121.82;;;77.65;;
47812;SDS011;34221;45.296;9.516;2022-10-16T01:30:52;120.07;;;76.25;;
47812;SDS011;34221;45.296;9.516;2022-10-16T01:31:13;123.45;;;76.57;;
47812;SDS011;34221;45.296;9.516;2022-10-16T01:31:32;122.55;;;76.28;;
47812;SDS011;34221;45.296;9.516;2022-10-16T01:31:55;127.50;;;76.67;;
47812;SDS011;34221;45.296;9.516;2022-10-16T01:32:16;126.00;;;78.43;;
47812;SDS011;34221;45.296;9.516;2022-10-16T01:33:10;122.88;;;76.90;;
47812;SDS011;34221;45.296;9.516;2022-10-16T01:33:28;117.65;;;76.07;;
47812;SDS011;34221;45.296;9.516;2022-10-16T01:33:51;124.13;;;77.13;;
47812;SDS011;34221;45.296;9.516;2022-10-16T01:34:20;128.55;;;77.75;;
47812;SDS011;34221;45.296;9.516;2022-10-16T01:34:54;119.93;;;77.22;;
47812;SDS011;34221;45.296;9.516;2022-10-16T01:35:18;122.78;;;77.45;;
47812;SDS011;34221;45.296;9.516;2022-10-16T01:35:46;135.80;;;77.60;;
47812;SDS011;34221;45.296;9.516;2022-10-16T01:36:12;122.10;;;78.25;;
47812;SDS011;34221;45.296;9.516;2022-10-16T01:36:37;126.13;;;79.82;;
47812;SDS011;34221;45.296;9.516;2022-10-16T01:36:57;122.28;;;77.03;;
47812;SDS011;34221;45.296;9.516;2022-10-16T01:38:01;127.80;;;76.20;;
47812;SDS011;34221;45.296;9.516;2022-10-16T01:38:38;123.60;;;75.25;;
47812;SDS011;34221;45.296;9.516;2022-10-16T01:38:56;121.03;;;76.32;;
47812;SDS011;34221;45.296;9.516;2022-10-16T01:39:14;124.22;;;77.75;;
47812;SDS011;34221;45.296;9.516;2022-10-16T01:39:33;123.30;;;77.63;;
47812;SDS011;34221;45.296;9.516;2022-10-16T01:39:52;124.47;;;78.03;;
47812;SDS011;34221;45.296;9.516;2022-10-16T01:40:13;129.70;;;78.03;;
47812;SDS011;34221;45.296;9.516;2022-10-16T01:40:32;126.97;;;78.22;;
47812;SDS011;34221;45.296;9.516;2022-10-16T01:40:52;125.13;;;76.82;;
47812;SDS011;34221;45.296;9.516;2022-10-16T01:42:08;122.47;;;76.15;;
47812;SDS011;34221;45.296;9.516;2022-10-16T01:42:31;131.85;;;79.13;;
47812;SDS011;34221;45.296;9.516;2022-10-16T01:42:53;126.90;;;76.53;;
47812;SDS011;34221;45.296;9.516;2022-10-16T01:43:19;125.22;;;76.20;;
47812;SDS011;34221;45.296;9.516;2022-10-16T01:43:42;115.93;;;74.90;;
47812;SDS011;34221;45.296;9.516;2022-10-16T01:44:27;113.43;;;72.75;;
47812;SDS011;34221;45.296;9.516;2022-10-16T01:44:48;119.18;;;75.47;;
47812;SDS011;34221;45.296;9.516;2022-10-16T01:45:05;123.10;;;76.70;;
47812;SDS011;34221;45.296;9.516;2022-10-16T01:45:22;120.90;;;75.43;;
47812;SDS011;34221;45.296;9.516;2022-10-16T01:45:37;122.95;;;75.43;;
47812;SDS011;34221;45.296;9.516;2022-10-16T01:45:53;120.57;;;75.65;;
47812;SDS011;34221;45.296;9.516;2022-10-16T01:46:09;118.30;;;74.90;;
47812;SDS011;34221;45.296;9.516;2022-10-16T01:46:27;122.93;;;76.03;;
47812;SDS011;34221;45.296;9.516;2022-10-16T01:46:46;122.60;;;76.70;;
47812;SDS011;34221;45.296;9.516;2022-10-16T01:47:03;128.40;;;78.32;;
47812;SDS011;34221;45.296;9.516;2022-10-16T01:47:21;129.10;;;77.80;;
47812;SDS011;34221;45.296;9.516;2022-10-16T01:47:39;127.53;;;76.20;;
47812;SDS011;34221;45.296;9.516;2022-10-16T01:47:56;126.38;;;76.75;;
47812;SDS011;34221;45.296;9.516;2022-10-16T01:48:13;121.68;;;76.47;;
47812;SDS011;34221;45.296;9.516;2022-10-16T01:48:32;124.57;;;75.65;;
47812;SDS011;34221;45.296;9.516;2022-10-16T01:48:49;124.60;;;76.43;;
47812;SDS011;34221;45.296;9.516;2022-10-16T01:49:06;115.82;;;75.30;;
47812;SDS011;34221;45.296;9.516;2022-10-16T01:49:24;119.93;;;76.40;;
47812;SDS011;34221;45.296;9.516;2022-10-16T01:49:44;112.13;;;73.25;;
47812;SDS011;34221;45.296;9.516;2022-10-16T01:50:00;117.68;;;75.20;;
47812;SDS011;34221;45.296;9.516;2022-10-16T01:50:19;119.45;;;75.95;;
47812;SDS011;34221;45.296;9.516;2022-10-16T01:50:36;116.63;;;75.80;;
47812;SDS011;34221;45.296;9.516;2022-10-16T01:50:57;114.80;;;75.10;;
47812;SDS011;34221;45.296;9.516;2022-10-16T01:51:19;115.25;;;73.45;;
47812;SDS011;34221;45.296;9.516;2022-10-16T01:51:35;119.20;;;74.38;;
47812;SDS011;34221;45.296;9.516;2022-10-16T01:51:52;121.47;;;76.28;;
47812;SDS011;34221;45.296;9.516;2022-10-16T01:52:12;118.18;;;75.47;;
47812;SDS011;34221;45.296;9.516;2022-10-16T01:52:37;124.72;;;74.95;;
47812;SDS011;34221;45.296;9.516;2022-10-16T01:52:56;126.55;;;75.55;;
47812;SDS011;34221;45.296;9.516;2022-10-16T01:53:13;122.65;;;76.13;;
47812;SDS011;34221;45.296;9.516;2022-10-16T01:53:30;120.18;;;75.20;;
47812;SDS011;34221;45.296;9.516;2022-10-16T01:53:49;127.15;;;77.60;;
47812;SDS011;34221;45.296;9.516;2022-10-16T01:54:08;125.28;;;75.60;;
47812;SDS011;34221;45.296;9.516;2022-10-16T01:54:26;121.50;;;75.10;;
47812;SDS011;34221;45.296;9.516;2022-10-16T01:54:43;116.30;;;73.97;;
47812;SDS011;34221;45.296;9.516;2022-10-16T01:55:01;120.88;;;75.60;;
47812;SDS011;34221;45.296;9.516;2022-10-16T01:55:22;117.47;;;72.75;;
47812;SDS011;34221;45.296;9.516;2022-10-16T01:55:43;117.82;;;74.10;;
47812;SDS011;34221;45.296;9.516;2022-10-16T01:56:00;119.05;;;74.88;;
47812;SDS011;34221;45.296;9.516;2022-10-16T01:56:18;121.65;;;75.35;;
47812;SDS011;34221;45.296;9.516;2022-10-16T01:56:36;110.03;;;72.97;;
47812;SDS011;34221;45.296;9.516;2022-10-16T01:56:54;114.13;;;73.40;;
47812;SDS011;34221;45.296;9.516;2022-10-16T01:57:10;119.20;;;74.72;;
47812;SDS011;34221;45.296;9.516;2022-10-16T01:57:28;116.75;;;72.75;;
47812;SDS011;34221;45.296;9.516;2022-10-16T01:57:46;117.68;;;73.25;;
47812;SDS011;34221;45.296;9.516;2022-10-16T01:58:04;118.88;;;75.53;;
47812;SDS011;34221;45.296;9.516;2022-10-16T01:58:22;117.00;;;73.88;;
47812;SDS011;34221;45.296;9.516;2022-10-16T01:58:42;118.75;;;73.93;;
47812;SDS011;34221;45.296;9.516;2022-10-16T01:59:21;116.20;;;74.05;;
47812;SDS011;34221;45.296;9.516;2022-10-16T01:59:42;119.13;;;73.75;;
47812;SDS011;34221;45.296;9.516;2022-10-16T02:00:04;119.28;;;73.60;;
47812;SDS011;34221;45.296;9.516;2022-10-16T02:00:27;117.03;;;74.63;;
47812;SDS011;34221;45.296;9.516;2022-10-16T02:00:44;116.53;;;73.47;;
47812;SDS011;34221;45.296;9.516;2022-10-16T02:01:01;119.25;;;73.63;;
47812;SDS011;34221;45.296;9.516;2022-10-16T02:01:19;123.35;;;75.88;;
47812;SDS011;34221;45.296;9.516;2022-10-16T02:01:37;120.30;;;74.80;;
47812;SDS011;34221;45.296;9.516;2022-10-16T02:01:56;118.82;;;72.60;;